Terminal Aerodrome Forecast
Issued by NWS Atlanta, GA

Home | Current Version | Previous Version | Text Only | Print | Product List | Glossary On
Versions: 1 2 3 4 5 6 7 8 9 10 11 12 13 14 15 16 17 18 19 20 21 22 23 24 25 26 27 28 29 30 31
000
FTAK31 PAJN 301100
TAFAHN
TAF
PAHN 301130Z 3012/3112 10008KT P6SM VCSH BKN015 BKN080
     FM301500 VRB05KT P6SM FEW015 SCT070
     FM301800 30010KT P6SM VCSH FEW030 SCT080
     FM310400 30010KT P6SM SCT100 BKN200
      AMD LTD TO CLD VIS AND WIND=

USA.gov is the U.S. government's official web portal to all federal, state and local government web resources and services.